46.9F
Current conditions from King Hill
Updated every 5 minutes
 
  Monday May 27, 2019

Observations for Westford

Westford

44° 37' 38"N, 73° 02' 29"W, Elevation 850 ft.
Eastern Time

Hourly observations for the last 72 hours

Date Time Temperature (°F) Humi-
dity

(%)
Wind
(mph)
Pressure Rain (in)
Air Dew 6 Hour 1 Hr 3 Hr 6 Hr Day
Alt
(in)
Sea
Level

(mb)
Max Min
27 05:00 46.7 44.8 93 Calm 29.91 1013.0 0.00
27 04:00 47.5 44.1 88 Calm 29.89 1012.4 0.00
27 03:00 52.4 47.1 82 Calm 29.89 1012.1 0.00
27 02:00 54.5 48.8 67.0 54.5 81 N 2 G 10 29.89 1012.2 0.00
27 01:00 56.6 50.5 80 NNE 0 G 6 29.87 1011.7 0.00
27 00:00 60.0 51.0 72 WNW 3 G 13 29.86 1011.1 0.15
26 23:00 57.6 51.5 80 Calm 29.84 1010.7 0.15
26 22:00 57.7 51.6 80 Calm 29.84 1010.6 0.15
26 21:00 60.4 53.2 77 Calm 29.83 1010.2 0.15
26 20:00 67.0 55.3 74.5 67.0 66 Calm 29.82 1009.7 0.15
26 19:00 70.3 54.8 58 WNW 1 G 9 29.80 1009.1 0.15
26 18:00 71.3 55.3 57 W 2 G 11 29.79 1009.0 0.15
26 17:00 73.6 54.9 52 NW 4 G 13 29.79 1008.7 0.15
26 16:00 73.5 56.4 55 WNW 2 G 18 29.78 1008.5 0.15
26 15:00 71.5 56.9 60 NW 1 G 15 29.78 1008.5 0.15
26 14:00 73.5 60.6 73.6 60.0 64 NW 2 G 14 29.77 1008.2 0.15
26 13:00 69.3 59.9 72 WNW 3 G 11 29.78 1008.4 0.15
26 12:00 71.0 63.4 77 NW 0 G 9 29.77 1008.1 0.15
26 11:00 71.4 62.7 74 SW 3 G 11 29.76 1007.7 0.15
26 10:00 67.4 61.4 81 SSW 5 G 13 29.76 1007.7 0.15
26 09:00 63.8 61.1 91 SW 0 G 12 29.75 1007.6 0.15
26 08:00 60.0 58.3 60.1 55.8 94 SSW 4 G 15 29.75 1007.7 0.01 0.01 0.15
26 07:00 57.4 56.3 96 SSW 0 G 10 29.79 1008.7 0.01 0.15
26 06:00 56.3 55.2 96 SSW 3 G 10 29.78 1008.7 0.14
26 05:00 56.2 55.1 96 SSW 3 G 10 29.77 1008.0 0.14
26 04:00 56.3 54.9 95 SSW 8 G 12 29.76 1007.8 0.14
26 03:00 56.4 55.0 95 SW 4 G 13 29.75 1007.5 0.14
26 02:00 56.7 55.3 57.7 55.4 95 SSW 6 G 15 29.76 1007.8 0.10 0.49 1.00 0.14
26 01:00 57.2 55.8 95 SSW 6 G 13 29.78 1008.4 0.04 0.04
26 00:00 57.4 56.0 95 S 3 G 15 29.80 1009.1 0.35 0.93
25 23:00 57.6 56.2 95 SSW 6 G 20 29.83 1010.1 0.37 0.51 0.58
25 22:00 57.4 55.7 94 SSW 5 G 18 29.83 1010.3 0.06 0.21
25 21:00 55.8 54.1 94 SSW 7 G 16 29.83 1010.3 0.08 0.15
25 20:00 55.6 53.3 65.3 55.6 92 S 5 G 15 29.84 1010.6 0.04 0.06 0.06 0.07
25 19:00 56.5 53.0 88 S 4 G 16 29.88 1012.0 0.02 0.03
25 18:00 61.1 51.3 70 SSW 3 G 21 29.90 1012.5 0.01
25 17:00 62.5 51.0 66 SSW 6 G 18 29.92 1013.4 0.01
25 16:00 63.6 50.4 62 SSW 5 G 22 29.96 1014.7 0.01
25 15:00 65.0 50.3 59 SSW 0 G 12 30.01 1016.5 0.01
25 14:00 64.2 46.2 67.4 51.1 52 SW 4 G 13 30.05 1017.5 0.01
25 13:00 66.2 49.6 55 SW 3 G 13 30.07 1018.4 0.01
25 12:00 66.7 52.4 60 SW 2 G 10 30.09 1019.0 0.01
25 11:00 65.5 51.3 60 S 1 G 12 30.11 1019.6 0.01
25 10:00 62.0 50.9 67 SSW 6 G 13 30.11 1019.8 0.01
25 09:00 58.4 53.6 84 Calm 30.15 1021.0 0.01
25 08:00 51.1 50.0 51.1 42.0 96 Calm 30.15 1021.1 0.01 0.01
25 07:00 47.4 46.3 96 SSW 0 G 5 30.15 1020.9 0.01
25 06:00 42.9 41.8 96 Calm 30.14 1020.6 0.01
25 05:00 42.6 41.5 96 Calm 30.12 1020.0 0.01 0.01
25 04:00 44.8 43.7 96 Calm 30.12 1020.0 0.01
25 03:00 43.2 42.1 96 Calm 30.11 1019.8 0.01 0.01
25 02:00 45.0 43.9 55.8 44.1 96 Calm 30.11 1019.8 0.00
25 01:00 44.9 43.6 95 Calm 30.10 1019.5 0.00
25 00:00 44.9 43.6 95 Calm 30.10 1019.2 0.17
24 23:00 47.2 45.6 94 Calm 30.11 1019.5 0.17
24 22:00 48.3 46.7 94 Calm 30.10 1019.3 0.17
24 21:00 50.9 48.7 92 Calm 30.08 1018.8 0.17
24 20:00 55.8 50.7 58.1 54.8 83 Calm 30.07 1018.4 0.17
24 19:00 56.3 51.5 84 Calm 30.05 1017.7 0.17
24 18:00 57.1 52.0 83 NW 0 G 2 30.03 1016.9 0.17
24 17:00 56.4 52.0 85 Calm 30.02 1016.7 0.17
24 16:00 55.4 51.0 85 NW 0 G 7 29.99 1015.5 0.17
24 15:00 56.1 51.3 84 NE 0 G 9 29.96 1014.6 0.17
24 14:00 55.3 51.5 55.9 49.9 87 N 1 G 11 29.93 1013.5 0.17
24 13:00 55.9 53.0 90 NNE 3 G 13 29.90 1012.4 0.17
24 12:00 53.3 51.3 93 NNW 0 G 13 29.88 1012.0 0.17
24 11:00 52.8 51.7 96 NNW 6 G 19 29.86 1011.3 0.17
24 10:00 51.3 50.2 96 NW 2 G 8 29.83 1010.4 0.17
24 09:00 50.4 49.3 96 Calm 29.80 1009.2 0.17
24 08:00 49.9 48.8 58.3 49.9 96 NW 0 G 11 29.76 1007.8 0.01 0.17 0.17
24 07:00 50.1 49.0 96 NNW 3 G 16 29.72 1006.4 0.17
24 06:00 50.7 49.3 95 NW 0 G 14 29.67 1004.8 0.01 0.17

Data generated by WxSolution Version 1.9.1.7, Build 2018.11.24.


 
 
Current Radar Loop:

Copyright © WestfordWeather.net 2007-2019. All rights reserved.